sensor_id;sensor_type;location;lat;lon;timestamp;temperature;humidity
42833;DHT22;64089;51.478;5.692;2023-04-03T00:01:02;1.80;99.90
42833;DHT22;64089;51.478;5.692;2023-04-03T00:03:28;1.80;99.90
42833;DHT22;64089;51.478;5.692;2023-04-03T00:05:54;1.70;99.90
42833;DHT22;64089;51.478;5.692;2023-04-03T00:08:20;1.70;99.90
42833;DHT22;64089;51.478;5.692;2023-04-03T00:10:46;1.70;99.90
42833;DHT22;64089;51.478;5.692;2023-04-03T00:13:12;1.70;99.90
42833;DHT22;64089;51.478;5.692;2023-04-03T00:15:39;1.70;99.90
42833;DHT22;64089;51.478;5.692;2023-04-03T00:18:05;1.60;99.90
42833;DHT22;64089;51.478;5.692;2023-04-03T00:20:32;1.70;99.90
42833;DHT22;64089;51.478;5.692;2023-04-03T00:22:58;1.70;99.90
42833;DHT22;64089;51.478;5.692;2023-04-03T00:25:23;1.60;99.90
42833;DHT22;64089;51.478;5.692;2023-04-03T00:27:49;1.70;99.90
42833;DHT22;64089;51.478;5.692;2023-04-03T00:30:18;1.70;99.90
42833;DHT22;64089;51.478;5.692;2023-04-03T00:32:44;1.70;99.90
42833;DHT22;64089;51.478;5.692;2023-04-03T00:35:10;1.70;99.90
42833;DHT22;64089;51.478;5.692;2023-04-03T00:37:36;1.70;99.90
42833;DHT22;64089;51.478;5.692;2023-04-03T00:40:02;1.70;99.90
42833;DHT22;64089;51.478;5.692;2023-04-03T00:42:28;1.60;99.90
42833;DHT22;64089;51.478;5.692;2023-04-03T00:47:23;1.40;99.90
42833;DHT22;64089;51.478;5.692;2023-04-03T00:49:50;1.40;99.90
42833;DHT22;64089;51.478;5.692;2023-04-03T00:52:20;1.40;99.90
42833;DHT22;64089;51.478;5.692;2023-04-03T00:54:47;1.40;99.90
42833;DHT22;64089;51.478;5.692;2023-04-03T00:57:14;1.40;99.90
42833;DHT22;64089;51.478;5.692;2023-04-03T00:59:48;1.40;99.90
42833;DHT22;64089;51.478;5.692;2023-04-03T01:02:15;1.40;99.90
42833;DHT22;64089;51.478;5.692;2023-04-03T01:04:43;1.40;99.90
42833;DHT22;64089;51.478;5.692;2023-04-03T01:07:17;1.40;99.90
42833;DHT22;64089;51.478;5.692;2023-04-03T01:09:45;1.30;99.90
42833;DHT22;64089;51.478;5.692;2023-04-03T01:12:17;1.40;99.90
42833;DHT22;64089;51.478;5.692;2023-04-03T01:14:44;1.40;99.90
42833;DHT22;64089;51.478;5.692;2023-04-03T01:18:00;1.30;99.90
42833;DHT22;64089;51.478;5.692;2023-04-03T01:23:13;1.20;99.90
42833;DHT22;64089;51.478;5.692;2023-04-03T01:28:19;1.20;99.90
42833;DHT22;64089;51.478;5.692;2023-04-03T01:31:00;1.30;99.90
42833;DHT22;64089;51.478;5.692;2023-04-03T01:33:28;1.30;99.90
42833;DHT22;64089;51.478;5.692;2023-04-03T01:35:54;1.30;99.90
42833;DHT22;64089;51.478;5.692;2023-04-03T01:38:20;1.30;99.90
42833;DHT22;64089;51.478;5.692;2023-04-03T01:40:49;1.30;99.90
42833;DHT22;64089;51.478;5.692;2023-04-03T01:43:15;1.30;99.90
42833;DHT22;64089;51.478;5.692;2023-04-03T01:45:40;1.30;99.90
42833;DHT22;64089;51.478;5.692;2023-04-03T01:48:06;1.30;99.90
42833;DHT22;64089;51.478;5.692;2023-04-03T01:50:31;1.30;99.90
42833;DHT22;64089;51.478;5.692;2023-04-03T01:52:57;1.40;99.90
42833;DHT22;64089;51.478;5.692;2023-04-03T01:55:23;1.40;99.90
42833;DHT22;64089;51.478;5.692;2023-04-03T01:57:48;1.50;99.90
42833;DHT22;64089;51.478;5.692;2023-04-03T02:00:14;1.50;99.90
42833;DHT22;64089;51.478;5.692;2023-04-03T02:02:40;1.50;99.90
42833;DHT22;64089;51.478;5.692;2023-04-03T02:05:06;1.50;99.90
42833;DHT22;64089;51.478;5.692;2023-04-03T02:07:32;1.50;99.90
42833;DHT22;64089;51.478;5.692;2023-04-03T02:09:57;1.50;99.90
42833;DHT22;64089;51.478;5.692;2023-04-03T02:12:23;1.50;99.90
42833;DHT22;64089;51.478;5.692;2023-04-03T02:14:49;1.50;99.90
42833;DHT22;64089;51.478;5.692;2023-04-03T02:17:14;1.50;99.90
42833;DHT22;64089;51.478;5.692;2023-04-03T02:19:40;1.50;99.90
42833;DHT22;64089;51.478;5.692;2023-04-03T02:22:06;1.60;99.90
42833;DHT22;64089;51.478;5.692;2023-04-03T02:24:32;1.60;99.90
42833;DHT22;64089;51.478;5.692;2023-04-03T02:26:58;1.60;99.90
42833;DHT22;64089;51.478;5.692;2023-04-03T02:29:24;1.60;99.90
42833;DHT22;64089;51.478;5.692;2023-04-03T02:31:50;1.70;99.90
42833;DHT22;64089;51.478;5.692;2023-04-03T02:34:15;1.70;99.90
42833;DHT22;64089;51.478;5.692;2023-04-03T02:36:41;1.70;99.90
42833;DHT22;64089;51.478;5.692;2023-04-03T02:39:07;1.70;99.90
42833;DHT22;64089;51.478;5.692;2023-04-03T02:41:33;1.70;99.90
42833;DHT22;64089;51.478;5.692;2023-04-03T02:44:01;1.70;99.90
42833;DHT22;64089;51.478;5.692;2023-04-03T02:46:27;1.70;99.90
42833;DHT22;64089;51.478;5.692;2023-04-03T02:48:53;1.60;99.90
42833;DHT22;64089;51.478;5.692;2023-04-03T02:51:18;1.60;99.90
42833;DHT22;64089;51.478;5.692;2023-04-03T02:53:44;1.70;99.90
42833;DHT22;64089;51.478;5.692;2023-04-03T02:56:10;1.70;99.90
42833;DHT22;64089;51.478;5.692;2023-04-03T02:58:35;1.70;99.90
42833;DHT22;64089;51.478;5.692;2023-04-03T03:01:01;1.70;99.90
42833;DHT22;64089;51.478;5.692;2023-04-03T03:03:27;1.70;99.90
42833;DHT22;64089;51.478;5.692;2023-04-03T03:06:13;1.70;99.90
42833;DHT22;64089;51.478;5.692;2023-04-03T03:08:39;1.70;99.90
42833;DHT22;64089;51.478;5.692;2023-04-03T03:11:05;1.70;99.90
42833;DHT22;64089;51.478;5.692;2023-04-03T03:13:31;1.70;99.90
42833;DHT22;64089;51.478;5.692;2023-04-03T03:15:57;1.70;99.90
42833;DHT22;64089;51.478;5.692;2023-04-03T03:18:23;1.70;99.90
42833;DHT22;64089;51.478;5.692;2023-04-03T03:20:53;1.70;99.90
42833;DHT22;64089;51.478;5.692;2023-04-03T03:23:19;1.70;99.90
42833;DHT22;64089;51.478;5.692;2023-04-03T03:25:45;1.60;99.90
42833;DHT22;64089;51.478;5.692;2023-04-03T03:28:10;1.60;99.90
42833;DHT22;64089;51.478;5.692;2023-04-03T03:30:37;1.60;99.90
42833;DHT22;64089;51.478;5.692;2023-04-03T03:33:03;1.50;99.90
42833;DHT22;64089;51.478;5.692;2023-04-03T03:35:28;1.50;99.90
42833;DHT22;64089;51.478;5.692;2023-04-03T03:37:54;1.40;99.90
42833;DHT22;64089;51.478;5.692;2023-04-03T03:40:20;1.50;99.90
42833;DHT22;64089;51.478;5.692;2023-04-03T03:42:46;1.50;99.90
42833;DHT22;64089;51.478;5.692;2023-04-03T03:45:11;1.40;99.90
42833;DHT22;64089;51.478;5.692;2023-04-03T03:47:37;1.50;99.90
42833;DHT22;64089;51.478;5.692;2023-04-03T03:50:03;1.40;99.90
42833;DHT22;64089;51.478;5.692;2023-04-03T03:52:29;1.40;99.90
42833;DHT22;64089;51.478;5.692;2023-04-03T03:54:55;1.50;99.90
42833;DHT22;64089;51.478;5.692;2023-04-03T03:57:21;1.40;99.90
42833;DHT22;64089;51.478;5.692;2023-04-03T03:59:47;1.40;99.90
42833;DHT22;64089;51.478;5.692;2023-04-03T04:02:14;1.40;99.90
42833;DHT22;64089;51.478;5.692;2023-04-03T04:04:40;1.40;99.90
42833;DHT22;64089;51.478;5.692;2023-04-03T04:07:05;1.40;99.90
42833;DHT22;64089;51.478;5.692;2023-04-03T04:09:31;1.40;99.90
42833;DHT22;64089;51.478;5.692;2023-04-03T04:11:57;1.40;99.90
42833;DHT22;64089;51.478;5.692;2023-04-03T04:14:23;1.40;99.90
42833;DHT22;64089;51.478;5.692;2023-04-03T04:16:49;1.40;99.90
42833;DHT22;64089;51.478;5.692;2023-04-03T04:19:15;1.40;99.90
42833;DHT22;64089;51.478;5.692;2023-04-03T04:21:40;1.30;99.90
42833;DHT22;64089;51.478;5.692;2023-04-03T04:24:07;1.40;99.90
42833;DHT22;64089;51.478;5.692;2023-04-03T04:26:33;1.30;99.90
42833;DHT22;64089;51.478;5.692;2023-04-03T04:28:59;1.30;99.90
42833;DHT22;64089;51.478;5.692;2023-04-03T04:31:24;1.30;99.90
42833;DHT22;64089;51.478;5.692;2023-04-03T04:33:50;1.30;99.90
42833;DHT22;64089;51.478;5.692;2023-04-03T04:36:15;1.20;99.90
42833;DHT22;64089;51.478;5.692;2023-04-03T04:38:41;1.20;99.90
42833;DHT22;64089;51.478;5.692;2023-04-03T04:41:07;1.20;99.90
42833;DHT22;64089;51.478;5.692;2023-04-03T04:43:33;1.20;99.90
42833;DHT22;64089;51.478;5.692;2023-04-03T04:46:07;1.20;99.90
42833;DHT22;64089;51.478;5.692;2023-04-03T04:48:34;1.10;99.90
42833;DHT22;64089;51.478;5.692;2023-04-03T04:50:59;1.10;99.90
42833;DHT22;64089;51.478;5.692;2023-04-03T04:53:25;1.10;99.90
42833;DHT22;64089;51.478;5.692;2023-04-03T04:55:51;1.10;99.90
42833;DHT22;64089;51.478;5.692;2023-04-03T04:58:17;1.20;99.90
42833;DHT22;64089;51.478;5.692;2023-04-03T05:00:43;1.20;99.90
42833;DHT22;64089;51.478;5.692;2023-04-03T05:03:08;1.20;99.90
42833;DHT22;64089;51.478;5.692;2023-04-03T05:05:34;1.20;99.90
42833;DHT22;64089;51.478;5.692;2023-04-03T05:08:01;1.30;99.90
42833;DHT22;64089;51.478;5.692;2023-04-03T05:10:26;1.20;99.90
42833;DHT22;64089;51.478;5.692;2023-04-03T05:12:52;1.20;99.90
42833;DHT22;64089;51.478;5.692;2023-04-03T05:15:18;1.20;99.90
42833;DHT22;64089;51.478;5.692;2023-04-03T05:17:43;1.20;99.90
42833;DHT22;64089;51.478;5.692;2023-04-03T05:20:09;1.30;99.90
42833;DHT22;64089;51.478;5.692;2023-04-03T05:22:35;1.30;99.90
42833;DHT22;64089;51.478;5.692;2023-04-03T05:25:01;1.30;99.90
42833;DHT22;64089;51.478;5.692;2023-04-03T05:27:26;1.30;99.90
42833;DHT22;64089;51.478;5.692;2023-04-03T05:29:54;1.30;99.90
42833;DHT22;64089;51.478;5.692;2023-04-03T05:32:23;1.40;99.90
42833;DHT22;64089;51.478;5.692;2023-04-03T05:34:49;1.40;99.90
42833;DHT22;64089;51.478;5.692;2023-04-03T05:37:14;1.40;99.90
42833;DHT22;64089;51.478;5.692;2023-04-03T05:39:40;1.50;99.90
42833;DHT22;64089;51.478;5.692;2023-04-03T05:42:07;1.50;99.90
42833;DHT22;64089;51.478;5.692;2023-04-03T05:44:32;1.50;99.90
42833;DHT22;64089;51.478;5.692;2023-04-03T05:46:58;1.50;99.90
42833;DHT22;64089;51.478;5.692;2023-04-03T05:49:26;1.60;99.90
42833;DHT22;64089;51.478;5.692;2023-04-03T05:51:52;1.60;99.90
42833;DHT22;64089;51.478;5.692;2023-04-03T05:54:20;1.60;99.90
42833;DHT22;64089;51.478;5.692;2023-04-03T05:56:49;1.70;99.90
42833;DHT22;64089;51.478;5.692;2023-04-03T05:59:15;1.70;99.90
42833;DHT22;64089;51.478;5.692;2023-04-03T06:01:41;1.70;99.90
42833;DHT22;64089;51.478;5.692;2023-04-03T06:04:07;1.80;99.90
42833;DHT22;64089;51.478;5.692;2023-04-03T06:06:55;1.80;99.90
42833;DHT22;64089;51.478;5.692;2023-04-03T06:09:23;1.80;99.90
42833;DHT22;64089;51.478;5.692;2023-04-03T06:11:49;1.90;99.90
42833;DHT22;64089;51.478;5.692;2023-04-03T06:14:15;1.90;99.90
42833;DHT22;64089;51.478;5.692;2023-04-03T06:16:41;2.00;99.90
42833;DHT22;64089;51.478;5.692;2023-04-03T06:19:10;2.00;99.90
42833;DHT22;64089;51.478;5.692;2023-04-03T06:21:37;2.00;99.90
42833;DHT22;64089;51.478;5.692;2023-04-03T06:24:04;2.10;99.90
42833;DHT22;64089;51.478;5.692;2023-04-03T06:26:29;2.10;99.90
42833;DHT22;64089;51.478;5.692;2023-04-03T06:28:55;2.20;99.90
42833;DHT22;64089;51.478;5.692;2023-04-03T06:31:21;2.20;99.90
42833;DHT22;64089;51.478;5.692;2023-04-03T06:33:47;2.20;99.90
42833;DHT22;64089;51.478;5.692;2023-04-03T06:36:12;2.30;99.90
42833;DHT22;64089;51.478;5.692;2023-04-03T06:38:38;2.30;99.90
42833;DHT22;64089;51.478;5.692;2023-04-03T06:41:04;2.30;99.90
42833;DHT22;64089;51.478;5.692;2023-04-03T06:43:30;2.30;99.90
42833;DHT22;64089;51.478;5.692;2023-04-03T06:45:58;2.40;99.90
42833;DHT22;64089;51.478;5.692;2023-04-03T06:48:24;2.50;99.90
42833;DHT22;64089;51.478;5.692;2023-04-03T06:50:49;2.60;99.90
42833;DHT22;64089;51.478;5.692;2023-04-03T06:53:15;2.60;99.90
42833;DHT22;64089;51.478;5.692;2023-04-03T06:55:41;2.60;99.90
42833;DHT22;64089;51.478;5.692;2023-04-03T06:58:06;2.60;99.90
42833;DHT22;64089;51.478;5.692;2023-04-03T07:00:32;2.70;99.90
42833;DHT22;64089;51.478;5.692;2023-04-03T07:02:58;2.80;99.90
42833;DHT22;64089;51.478;5.692;2023-04-03T07:05:24;2.80;99.90
42833;DHT22;64089;51.478;5.692;2023-04-03T07:07:50;2.90;99.90
42833;DHT22;64089;51.478;5.692;2023-04-03T07:10:16;2.90;99.90
42833;DHT22;64089;51.478;5.692;2023-04-03T07:12:42;3.00;99.90
42833;DHT22;64089;51.478;5.692;2023-04-03T07:15:08;3.00;99.90
42833;DHT22;64089;51.478;5.692;2023-04-03T07:17:34;3.10;99.90
42833;DHT22;64089;51.478;5.692;2023-04-03T07:20:01;3.20;99.90
42833;DHT22;64089;51.478;5.692;2023-04-03T07:22:27;3.20;99.90
42833;DHT22;64089;51.478;5.692;2023-04-03T07:24:53;3.30;99.90
42833;DHT22;64089;51.478;5.692;2023-04-03T07:27:19;3.30;99.90
42833;DHT22;64089;51.478;5.692;2023-04-03T07:29:45;3.40;99.90
42833;DHT22;64089;51.478;5.692;2023-04-03T07:32:10;3.40;99.90
42833;DHT22;64089;51.478;5.692;2023-04-03T07:34:37;3.50;99.90
42833;DHT22;64089;51.478;5.692;2023-04-03T07:37:02;3.60;99.90
42833;DHT22;64089;51.478;5.692;2023-04-03T07:39:29;3.60;99.90
42833;DHT22;64089;51.478;5.692;2023-04-03T07:41:54;3.60;99.90
42833;DHT22;64089;51.478;5.692;2023-04-03T07:44:23;3.60;99.90
42833;DHT22;64089;51.478;5.692;2023-04-03T07:46:48;3.70;99.90
42833;DHT22;64089;51.478;5.692;2023-04-03T07:49:16;3.80;99.90
42833;DHT22;64089;51.478;5.692;2023-04-03T07:51:43;3.80;99.90
42833;DHT22;64089;51.478;5.692;2023-04-03T07:54:09;3.90;99.90
42833;DHT22;64089;51.478;5.692;2023-04-03T07:56:35;3.90;99.90
42833;DHT22;64089;51.478;5.692;2023-04-03T07:59:01;4.00;99.90
42833;DHT22;64089;51.478;5.692;2023-04-03T08:01:27;4.10;99.90
42833;DHT22;64089;51.478;5.692;2023-04-03T08:03:53;4.20;99.90
42833;DHT22;64089;51.478;5.692;2023-04-03T08:06:19;4.30;99.90
42833;DHT22;64089;51.478;5.692;2023-04-03T08:08:44;4.30;99.90
42833;DHT22;64089;51.478;5.692;2023-04-03T08:11:11;4.40;99.90
42833;DHT22;64089;51.478;5.692;2023-04-03T08:13:36;4.40;99.90
42833;DHT22;64089;51.478;5.692;2023-04-03T08:16:15;4.50;99.90
42833;DHT22;64089;51.478;5.692;2023-04-03T08:18:41;4.50;99.90
42833;DHT22;64089;51.478;5.692;2023-04-03T08:21:11;4.60;99.90
42833;DHT22;64089;51.478;5.692;2023-04-03T08:23:38;4.70;99.90
42833;DHT22;64089;51.478;5.692;2023-04-03T08:26:12;4.80;99.90
42833;DHT22;64089;51.478;5.692;2023-04-03T08:28:38;4.80;99.90
42833;DHT22;64089;51.478;5.692;2023-04-03T08:31:07;4.90;99.90
42833;DHT22;64089;51.478;5.692;2023-04-03T08:33:34;4.90;99.90
42833;DHT22;64089;51.478;5.692;2023-04-03T08:36:02;5.00;99.90
42833;DHT22;64089;51.478;5.692;2023-04-03T08:38:28;5.00;99.90
42833;DHT22;64089;51.478;5.692;2023-04-03T08:46:28;5.20;99.90
42833;DHT22;64089;51.478;5.692;2023-04-03T08:48:57;5.20;99.90
42833;DHT22;64089;51.478;5.692;2023-04-03T08:51:23;5.30;99.90
42833;DHT22;64089;51.478;5.692;2023-04-03T08:54:00;5.30;99.90
42833;DHT22;64089;51.478;5.692;2023-04-03T08:56:27;5.30;99.00
42833;DHT22;64089;51.478;5.692;2023-04-03T08:59:05;5.40;98.30
42833;DHT22;64089;51.478;5.692;2023-04-03T09:01:38;5.50;97.60
42833;DHT22;64089;51.478;5.692;2023-04-03T09:04:13;5.50;96.30
42833;DHT22;64089;51.478;5.692;2023-04-03T09:06:45;5.60;98.20
42833;DHT22;64089;51.478;5.692;2023-04-03T09:12:21;5.70;96.60
42833;DHT22;64089;51.478;5.692;2023-04-03T09:15:18;5.70;96.80
42833;DHT22;64089;51.478;5.692;2023-04-03T09:20:25;5.90;94.50
42833;DHT22;64089;51.478;5.692;2023-04-03T09:22:51;5.90;93.80
42833;DHT22;64089;51.478;5.692;2023-04-03T09:25:23;5.90;94.00
42833;DHT22;64089;51.478;5.692;2023-04-03T09:27:51;5.90;93.20
42833;DHT22;64089;51.478;5.692;2023-04-03T09:30:23;5.90;92.50
42833;DHT22;64089;51.478;5.692;2023-04-03T09:32:50;6.00;93.90
42833;DHT22;64089;51.478;5.692;2023-04-03T09:35:20;6.10;92.00
42833;DHT22;64089;51.478;5.692;2023-04-03T09:37:49;6.20;92.10
42833;DHT22;64089;51.478;5.692;2023-04-03T09:40:33;6.30;93.00
42833;DHT22;64089;51.478;5.692;2023-04-03T09:43:21;6.30;91.70
42833;DHT22;64089;51.478;5.692;2023-04-03T09:45:49;6.30;90.90
42833;DHT22;64089;51.478;5.692;2023-04-03T09:48:18;6.50;89.00
42833;DHT22;64089;51.478;5.692;2023-04-03T10:01:40;6.60;85.00
42833;DHT22;64089;51.478;5.692;2023-04-03T10:04:18;6.70;85.60
42833;DHT22;64089;51.478;5.692;2023-04-03T10:06:55;6.80;86.00
42833;DHT22;64089;51.478;5.692;2023-04-03T10:09:25;6.90;86.00
42833;DHT22;64089;51.478;5.692;2023-04-03T10:14:28;6.90;83.00
42833;DHT22;64089;51.478;5.692;2023-04-03T10:17:20;6.90;83.50
42833;DHT22;64089;51.478;5.692;2023-04-03T10:25:24;7.10;81.30
42833;DHT22;64089;51.478;5.692;2023-04-03T10:31:14;7.10;79.10
42833;DHT22;64089;51.478;5.692;2023-04-03T10:33:47;7.20;80.10
42833;DHT22;64089;51.478;5.692;2023-04-03T10:42:18;7.40;79.40
42833;DHT22;64089;51.478;5.692;2023-04-03T10:57:22;7.60;76.50
42833;DHT22;64089;51.478;5.692;2023-04-03T10:59:51;7.70;75.40
42833;DHT22;64089;51.478;5.692;2023-04-03T11:05:43;7.70;73.80
42833;DHT22;64089;51.478;5.692;2023-04-03T11:08:33;7.80;74.50
42833;DHT22;64089;51.478;5.692;2023-04-03T11:11:03;7.80;75.10
42833;DHT22;64089;51.478;5.692;2023-04-03T11:13:43;8.00;74.10
42833;DHT22;64089;51.478;5.692;2023-04-03T11:16:20;7.90;72.50
42833;DHT22;64089;51.478;5.692;2023-04-03T11:18:54;7.90;74.00
42833;DHT22;64089;51.478;5.692;2023-04-03T11:21:28;8.10;75.20
42833;DHT22;64089;51.478;5.692;2023-04-03T11:23:57;8.20;75.30
42833;DHT22;64089;51.478;5.692;2023-04-03T11:26:27;8.20;73.90
42833;DHT22;64089;51.478;5.692;2023-04-03T11:29:05;8.20;72.50
42833;DHT22;64089;51.478;5.692;2023-04-03T11:34:51;8.30;74.50
42833;DHT22;64089;51.478;5.692;2023-04-03T11:37:24;8.40;75.30
42833;DHT22;64089;51.478;5.692;2023-04-03T11:40:08;8.40;75.80
42833;DHT22;64089;51.478;5.692;2023-04-03T11:42:52;8.50;74.40
42833;DHT22;64089;51.478;5.692;2023-04-03T11:47:57;8.40;73.30
42833;DHT22;64089;51.478;5.692;2023-04-03T12:16:26;8.60;71.00
42833;DHT22;64089;51.478;5.692;2023-04-03T12:35:37;9.30;75.80
42833;DHT22;64089;51.478;5.692;2023-04-03T12:38:29;9.30;74.10
42833;DHT22;64089;51.478;5.692;2023-04-03T12:43:50;9.30;77.50
42833;DHT22;64089;51.478;5.692;2023-04-03T12:46:23;9.40;76.20
42833;DHT22;64089;51.478;5.692;2023-04-03T12:48:52;9.40;75.30
42833;DHT22;64089;51.478;5.692;2023-04-03T12:54:00;9.30;75.90
42833;DHT22;64089;51.478;5.692;2023-04-03T12:56:32;9.40;76.00
42833;DHT22;64089;51.478;5.692;2023-04-03T12:59:21;9.40;74.50
42833;DHT22;64089;51.478;5.692;2023-04-03T13:01:59;9.40;74.60
42833;DHT22;64089;51.478;5.692;2023-04-03T13:04:26;9.60;76.20
42833;DHT22;64089;51.478;5.692;2023-04-03T13:06:52;9.70;78.00
42833;DHT22;64089;51.478;5.692;2023-04-03T13:09:27;9.70;76.50
42833;DHT22;64089;51.478;5.692;2023-04-03T13:11:57;9.60;75.40
42833;DHT22;64089;51.478;5.692;2023-04-03T13:14:25;9.60;76.70
42833;DHT22;64089;51.478;5.692;2023-04-03T13:19:24;9.50;75.10
42833;DHT22;64089;51.478;5.692;2023-04-03T13:22:01;9.60;75.20
42833;DHT22;64089;51.478;5.692;2023-04-03T13:24:29;9.60;76.10
42833;DHT22;64089;51.478;5.692;2023-04-03T13:26:56;9.80;77.80
42833;DHT22;64089;51.478;5.692;2023-04-03T13:29:29;9.70;75.80
42833;DHT22;64089;51.478;5.692;2023-04-03T13:31:56;9.70;78.50
42833;DHT22;64089;51.478;5.692;2023-04-03T13:34:26;9.90;79.30
42833;DHT22;64089;51.478;5.692;2023-04-03T13:39:22;9.70;75.70
42833;DHT22;64089;51.478;5.692;2023-04-03T13:41:51;9.70;77.00
42833;DHT22;64089;51.478;5.692;2023-04-03T13:46:51;9.90;76.30
42833;DHT22;64089;51.478;5.692;2023-04-03T13:51:46;9.80;77.50
42833;DHT22;64089;51.478;5.692;2023-04-03T13:54:25;9.70;77.20
42833;DHT22;64089;51.478;5.692;2023-04-03T13:56:56;9.70;77.20
42833;DHT22;64089;51.478;5.692;2023-04-03T13:59:24;9.80;78.30
42833;DHT22;64089;51.478;5.692;2023-04-03T14:04:23;10.10;78.60
42833;DHT22;64089;51.478;5.692;2023-04-03T14:06:50;10.30;77.80
42833;DHT22;64089;51.478;5.692;2023-04-03T14:09:18;10.10;76.70
42833;DHT22;64089;51.478;5.692;2023-04-03T14:11:45;10.10;76.40
42833;DHT22;64089;51.478;5.692;2023-04-03T14:14:16;10.20;78.20
42833;DHT22;64089;51.478;5.692;2023-04-03T14:16:47;10.10;78.00
42833;DHT22;64089;51.478;5.692;2023-04-03T14:19:26;10.10;76.00
42833;DHT22;64089;51.478;5.692;2023-04-03T14:21:53;10.20;76.80
42833;DHT22;64089;51.478;5.692;2023-04-03T14:24:20;10.20;77.70
42833;DHT22;64089;51.478;5.692;2023-04-03T14:26:48;10.20;78.10
42833;DHT22;64089;51.478;5.692;2023-04-03T14:29:15;10.10;76.90
42833;DHT22;64089;51.478;5.692;2023-04-03T14:31:42;10.10;78.00
42833;DHT22;64089;51.478;5.692;2023-04-03T14:34:10;10.20;78.20
42833;DHT22;64089;51.478;5.692;2023-04-03T14:36:36;10.40;78.30
42833;DHT22;64089;51.478;5.692;2023-04-03T14:39:03;10.40;77.30
42833;DHT22;64089;51.478;5.692;2023-04-03T14:41:29;10.30;77.30
42833;DHT22;64089;51.478;5.692;2023-04-03T14:43:55;10.40;78.50
42833;DHT22;64089;51.478;5.692;2023-04-03T14:46:31;10.50;79.10
42833;DHT22;64089;51.478;5.692;2023-04-03T14:48:58;10.30;78.20
42833;DHT22;64089;51.478;5.692;2023-04-03T14:51:24;10.10;78.20
42833;DHT22;64089;51.478;5.692;2023-04-03T14:53:50;10.60;79.10
42833;DHT22;64089;51.478;5.692;2023-04-03T14:56:27;10.90;79.50
42833;DHT22;64089;51.478;5.692;2023-04-03T14:58:59;11.00;78.00
42833;DHT22;64089;51.478;5.692;2023-04-03T15:01:26;11.30;79.50
42833;DHT22;64089;51.478;5.692;2023-04-03T15:03:51;11.50;80.80
42833;DHT22;64089;51.478;5.692;2023-04-03T15:06:17;11.60;79.30
42833;DHT22;64089;51.478;5.692;2023-04-03T15:08:43;11.50;75.80
42833;DHT22;64089;51.478;5.692;2023-04-03T15:11:10;11.30;75.70
42833;DHT22;64089;51.478;5.692;2023-04-03T15:13:37;11.40;78.00
42833;DHT22;64089;51.478;5.692;2023-04-03T15:16:03;11.30;75.50
42833;DHT22;64089;51.478;5.692;2023-04-03T15:18:35;11.20;76.70
42833;DHT22;64089;51.478;5.692;2023-04-03T15:21:03;11.30;77.80
42833;DHT22;64089;51.478;5.692;2023-04-03T15:23:28;11.30;77.10
42833;DHT22;64089;51.478;5.692;2023-04-03T15:25:55;11.20;77.70
42833;DHT22;64089;51.478;5.692;2023-04-03T15:28:22;11.20;77.20
42833;DHT22;64089;51.478;5.692;2023-04-03T15:30:48;11.20;77.60
42833;DHT22;64089;51.478;5.692;2023-04-03T15:33:14;11.30;78.50
42833;DHT22;64089;51.478;5.692;2023-04-03T15:35:41;11.40;78.60
42833;DHT22;64089;51.478;5.692;2023-04-03T15:38:07;11.50;80.50
42833;DHT22;64089;51.478;5.692;2023-04-03T15:40:33;11.50;80.60
42833;DHT22;64089;51.478;5.692;2023-04-03T15:42:58;11.40;79.00
42833;DHT22;64089;51.478;5.692;2023-04-03T15:45:24;11.30;77.00
42833;DHT22;64089;51.478;5.692;2023-04-03T15:47:50;11.20;77.90
42833;DHT22;64089;51.478;5.692;2023-04-03T15:50:16;11.00;76.70
42833;DHT22;64089;51.478;5.692;2023-04-03T15:52:42;11.00;76.00
42833;DHT22;64089;51.478;5.692;2023-04-03T15:55:08;10.90;75.80
42833;DHT22;64089;51.478;5.692;2023-04-03T15:57:34;10.90;77.90
42833;DHT22;64089;51.478;5.692;2023-04-03T15:59:59;10.90;78.40
42833;DHT22;64089;51.478;5.692;2023-04-03T16:02:25;11.00;76.50
42833;DHT22;64089;51.478;5.692;2023-04-03T16:04:54;11.00;77.00
42833;DHT22;64089;51.478;5.692;2023-04-03T16:07:20;10.90;76.50
42833;DHT22;64089;51.478;5.692;2023-04-03T16:09:46;10.80;77.20
42833;DHT22;64089;51.478;5.692;2023-04-03T16:12:11;10.90;76.60
42833;DHT22;64089;51.478;5.692;2023-04-03T16:14:37;10.90;76.60
42833;DHT22;64089;51.478;5.692;2023-04-03T16:17:03;10.80;77.80
42833;DHT22;64089;51.478;5.692;2023-04-03T16:19:29;10.90;79.30
42833;DHT22;64089;51.478;5.692;2023-04-03T16:21:55;11.10;79.70
42833;DHT22;64089;51.478;5.692;2023-04-03T16:24:21;11.10;79.20
42833;DHT22;64089;51.478;5.692;2023-04-03T16:26:47;11.00;78.70
42833;DHT22;64089;51.478;5.692;2023-04-03T16:29:12;10.90;77.90
42833;DHT22;64089;51.478;5.692;2023-04-03T16:31:38;10.90;79.10
42833;DHT22;64089;51.478;5.692;2023-04-03T16:34:04;10.70;78.10
42833;DHT22;64089;51.478;5.692;2023-04-03T16:36:29;10.70;79.10
42833;DHT22;64089;51.478;5.692;2023-04-03T16:38:55;10.70;79.40
42833;DHT22;64089;51.478;5.692;2023-04-03T16:41:21;10.80;80.20
42833;DHT22;64089;51.478;5.692;2023-04-03T16:43:46;10.70;79.60
42833;DHT22;64089;51.478;5.692;2023-04-03T16:46:12;10.80;80.10
42833;DHT22;64089;51.478;5.692;2023-04-03T16:48:37;10.70;79.10
42833;DHT22;64089;51.478;5.692;2023-04-03T16:51:03;10.80;81.60
42833;DHT22;64089;51.478;5.692;2023-04-03T16:53:29;10.70;79.70
42833;DHT22;64089;51.478;5.692;2023-04-03T16:55:57;10.70;78.70
42833;DHT22;64089;51.478;5.692;2023-04-03T16:58:23;10.40;78.70
42833;DHT22;64089;51.478;5.692;2023-04-03T17:00:49;10.20;77.60
42833;DHT22;64089;51.478;5.692;2023-04-03T17:03:14;10.00;78.00
42833;DHT22;64089;51.478;5.692;2023-04-03T17:05:40;9.90;78.70
42833;DHT22;64089;51.478;5.692;2023-04-03T17:08:06;9.90;78.40
42833;DHT22;64089;51.478;5.692;2023-04-03T17:10:32;9.80;78.90
42833;DHT22;64089;51.478;5.692;2023-04-03T17:13:00;9.80;79.70
42833;DHT22;64089;51.478;5.692;2023-04-03T17:15:25;9.70;79.00
42833;DHT22;64089;51.478;5.692;2023-04-03T17:17:51;9.60;79.00
42833;DHT22;64089;51.478;5.692;2023-04-03T17:20:18;9.60;80.20
42833;DHT22;64089;51.478;5.692;2023-04-03T17:22:44;9.60;81.00
42833;DHT22;64089;51.478;5.692;2023-04-03T17:25:10;9.60;80.90
42833;DHT22;64089;51.478;5.692;2023-04-03T17:27:35;9.60;80.90
42833;DHT22;64089;51.478;5.692;2023-04-03T17:30:02;9.50;80.00
42833;DHT22;64089;51.478;5.692;2023-04-03T17:32:28;9.30;80.00
42833;DHT22;64089;51.478;5.692;2023-04-03T17:34:53;9.20;80.00
42833;DHT22;64089;51.478;5.692;2023-04-03T17:37:19;9.10;80.10
42833;DHT22;64089;51.478;5.692;2023-04-03T17:39:44;9.00;79.80
42833;DHT22;64089;51.478;5.692;2023-04-03T17:42:11;9.00;80.70
42833;DHT22;64089;51.478;5.692;2023-04-03T17:44:37;8.90;81.10
42833;DHT22;64089;51.478;5.692;2023-04-03T17:47:03;8.90;81.80
42833;DHT22;64089;51.478;5.692;2023-04-03T17:49:28;8.80;82.30
42833;DHT22;64089;51.478;5.692;2023-04-03T17:51:54;8.80;82.90
42833;DHT22;64089;51.478;5.692;2023-04-03T17:54:20;8.80;82.80
42833;DHT22;64089;51.478;5.692;2023-04-03T17:56:46;8.60;82.80